Time;durP1;ratioP1;P1;durP2;ratioP2;P2;SDS_P1;SDS_P2;PMS_P1;PMS_P2;Temp;Humidity;BMP_temperature;BMP_pressure;BME280_temperature;BME280_humidity;BME280_pressure;Samples;Min_cycle;Max_cycle;Signal;HPM_P1;HPM_P2
2023/06/14 00:01:51;;;;;;;4.75;4.43;;;;;;;18.25;97.17;94716.38;4951696;28;20212;-66
2023/06/14 00:04:18;;;;;;;7.43;4.50;;;;;;;18.24;97.47;94720.69;4956030;28;20514;-66
2023/06/14 00:06:46;;;;;;;5.18;4.88;;;;;;;18.41;96.58;94718.69;4958290;28;21590;-64
2023/06/14 00:09:14;;;;;;;5.68;5.28;;;;;;;18.47;96.50;94718.28;4959334;28;20747;-68
2023/06/14 00:11:40;;;;;;;5.45;5.05;;;;;;;18.41;96.69;94719.53;4960960;28;20363;-66
2023/06/14 00:14:08;;;;;;;5.45;4.95;;;;;;;18.21;97.45;94708.06;4960630;28;20283;-66
2023/06/14 00:16:35;;;;;;;9.75;5.38;;;;;;;18.38;97.32;94716.34;4959558;28;20209;-65
2023/06/14 00:19:03;;;;;;;5.10;4.80;;;;;;;18.40;96.23;94711.91;4958781;28;21175;-66
2023/06/14 00:21:30;;;;;;;5.55;5.15;;;;;;;18.36;96.30;94717.25;4958421;28;20201;-63
2023/06/14 00:23:57;;;;;;;8.05;5.15;;;;;;;18.30;97.09;94720.28;4960846;28;20299;-65
2023/06/14 00:26:26;;;;;;;6.55;5.90;;;;;;;18.27;97.86;94711.94;4958029;28;20201;-65
2023/06/14 00:28:52;;;;;;;5.30;4.80;;;;;;;18.27;97.85;94717.91;4958278;28;20209;-65
2023/06/14 00:31:19;;;;;;;5.65;5.25;;;;;;;18.11;97.51;94673.59;4958956;28;20648;-65
2023/06/14 00:33:46;;;;;;;5.30;5.00;;;;;;;18.45;96.27;94710.66;4956465;28;20216;-64
2023/06/14 00:36:13;;;;;;;6.10;5.68;;;;;;;18.38;96.72;94708.63;4957066;28;20217;-65
2023/06/14 00:38:39;;;;;;;6.38;5.35;;;;;;;18.35;97.29;94705.31;4956926;28;20236;-66
2023/06/14 00:41:06;;;;;;;5.43;5.07;;;;;;;18.34;97.23;94701.13;4957049;28;20352;-65
2023/06/14 00:43:35;;;;;;;8.50;5.72;;;;;;;18.31;96.46;94706.47;4956960;28;20812;-65
2023/06/14 00:46:02;;;;;;;5.47;5.07;;;;;;;18.21;97.17;94702.91;4958564;28;20213;-63
2023/06/14 00:48:30;;;;;;;5.30;5.00;;;;;;;18.13;98.09;94704.34;4957977;28;21205;-65
2023/06/14 00:50:57;;;;;;;6.25;5.85;;;;;;;18.10;98.13;94705.38;4958714;28;20290;-65
2023/06/14 00:53:25;;;;;;;5.38;4.78;;;;;;;18.06;98.77;94703.16;4959104;28;20226;-66
2023/06/14 00:55:51;;;;;;;6.15;5.72;;;;;;;18.03;98.96;94706.75;4959915;28;20241;-65
2023/06/14 00:58:19;;;;;;;5.90;5.40;;;;;;;17.96;98.99;94701.19;4957723;28;20271;-65
2023/06/14 01:00:46;;;;;;;6.20;5.75;;;;;;;17.94;99.44;94704.78;4959737;28;20267;-64
2023/06/14 01:03:18;;;;;;;5.45;5.15;;;;;;;17.97;99.22;94700.28;4958965;28;20740;-65
2023/06/14 01:05:45;;;;;;;5.78;5.35;;;;;;;17.94;99.40;94704.78;4959821;28;20675;-65
2023/06/14 01:08:23;;;;;;;8.23;5.97;;;;;;;17.92;99.06;94701.50;4959612;28;20217;-64
2023/06/14 01:10:57;;;;;;;5.45;5.15;;;;;;;17.91;99.84;94705.00;4959217;28;20264;-66
2023/06/14 01:13:30;;;;;;;5.90;5.40;;;;;;;17.94;99.91;94703.03;4956252;28;20770;-65
2023/06/14 01:15:58;;;;;;;5.95;5.45;;;;;;;17.94;99.89;94697.91;4960009;28;20548;-65
2023/06/14 01:18:25;;;;;;;5.85;5.45;;;;;;;17.97;99.96;94702.84;4957479;28;20918;-66
2023/06/14 01:20:54;;;;;;;6.25;5.68;;;;;;;18.00;99.48;94699.25;4956248;28;20584;-65
2023/06/14 01:23:23;;;;;;;7.00;6.50;;;;;;;18.02;99.90;94698.22;4957040;28;20700;-65
2023/06/14 01:25:52;;;;;;;6.70;6.30;;;;;;;18.07;99.58;94697.03;4958546;28;20271;-66
2023/06/14 01:28:21;;;;;;;6.50;6.20;;;;;;;18.06;99.09;94698.00;4958987;28;20245;-66
2023/06/14 01:30:53;;;;;;;6.70;6.13;;;;;;;18.06;99.15;94696.25;4957685;28;20287;-65
2023/06/14 01:33:22;;;;;;;7.38;6.65;;;;;;;18.08;98.32;94696.13;4958852;28;20201;-67
2023/06/14 01:35:52;;;;;;;6.22;5.78;;;;;;;18.07;98.49;94692.72;4958398;28;20285;-66
2023/06/14 01:38:21;;;;;;;5.70;5.40;;;;;;;18.00;98.03;94692.34;4958194;28;22153;-66
2023/06/14 01:40:50;;;;;;;6.78;6.28;;;;;;;17.97;98.17;94704.59;4957769;28;20451;-65
2023/06/14 01:43:18;;;;;;;7.95;5.88;;;;;;;17.91;98.39;94694.72;4956988;28;20694;-65
2023/06/14 01:45:48;;;;;;;6.80;6.40;;;;;;;17.93;98.23;94701.41;4958088;28;20722;-65
2023/06/14 01:48:15;;;;;;;5.72;5.43;;;;;;;17.96;98.13;94703.75;4958726;28;20209;-66
2023/06/14 01:50:42;;;;;;;7.00;6.50;;;;;;;17.96;98.32;94692.66;4958008;28;20228;-65
2023/06/14 01:53:09;;;;;;;6.32;5.88;;;;;;;18.04;98.02;94695.53;4956865;28;20236;-66
2023/06/14 01:55:38;;;;;;;5.75;5.45;;;;;;;18.11;97.58;94701.88;4958646;28;20291;-65
2023/06/14 01:58:06;;;;;;;6.43;6.13;;;;;;;18.20;96.90;94711.53;4956701;28;20687;-65
2023/06/14 02:00:32;;;;;;;7.13;6.47;;;;;;;18.29;96.32;94710.09;4957168;28;20749;-65
2023/06/14 02:03:00;;;;;;;6.20;5.90;;;;;;;18.28;95.81;94709.28;4956491;28;20715;-65
2023/06/14 02:05:26;;;;;;;7.13;5.80;;;;;;;18.23;96.16;94713.09;4957614;28;20209;-65
2023/06/14 02:07:54;;;;;;;7.10;6.05;;;;;;;18.21;96.29;94718.34;4957212;28;20217;-65
2023/06/14 02:10:21;;;;;;;7.60;6.50;;;;;;;18.17;96.71;94719.47;4956317;28;20300;-65
2023/06/14 02:12:48;;;;;;;6.70;6.15;;;;;;;18.11;96.77;94722.44;4956668;28;20296;-64
2023/06/14 02:15:18;;;;;;;6.95;6.35;;;;;;;18.05;97.14;94720.31;4955856;28;20315;-66
2023/06/14 02:17:44;;;;;;;6.45;5.93;;;;;;;18.03;97.10;94735.03;4955585;28;20267;-65
2023/06/14 02:20:12;;;;;;;6.32;5.82;;;;;;;18.01;97.14;94731.75;4958473;28;20443;-65
2023/06/14 02:22:39;;;;;;;6.65;5.45;;;;;;;17.93;97.22;94723.72;4957882;28;20754;-66
2023/06/14 02:25:06;;;;;;;5.95;5.45;;;;;;;18.02;96.90;94730.81;4957663;28;20609;-65
2023/06/14 02:27:33;;;;;;;5.95;5.65;;;;;;;18.07;96.27;94733.03;4957675;28;20209;-65
2023/06/14 02:30:00;;;;;;;6.13;5.78;;;;;;;18.01;96.80;94734.31;4957937;28;20228;-65
2023/06/14 02:32:28;;;;;;;5.75;5.22;;;;;;;17.95;97.23;94732.97;4955746;28;20257;-66
2023/06/14 02:34:55;;;;;;;6.78;6.10;;;;;;;17.96;97.22;94728.66;4956020;28;20766;-65
2023/06/14 02:37:22;;;;;;;6.63;5.95;;;;;;;17.91;97.45;94731.53;4956127;28;20217;-65
2023/06/14 02:39:48;;;;;;;8.10;5.88;;;;;;;17.97;97.22;94730.28;4955831;28;20217;-66
2023/06/14 02:42:15;;;;;;;6.97;6.38;;;;;;;17.96;97.18;94726.09;4957076;28;20316;-65
2023/06/14 02:44:43;;;;;;;6.22;5.82;;;;;;;17.99;96.90;94723.31;4955890;28;20286;-65
2023/06/14 02:47:10;;;;;;;7.68;5.80;;;;;;;18.00;96.76;94724.94;4956413;28;20323;-65
2023/06/14 02:49:38;;;;;;;6.18;5.78;;;;;;;17.96;96.91;94718.38;4957120;28;20679;-66
2023/06/14 02:52:06;;;;;;;7.20;6.57;;;;;;;17.87;96.95;94722.38;4956595;28;20684;-63
2023/06/14 02:54:32;;;;;;;6.15;5.75;;;;;;;17.76;97.03;94718.88;4957421;28;20213;-66
2023/06/14 02:56:59;;;;;;;7.38;5.78;;;;;;;17.71;97.41;94724.34;4956369;28;20209;-65
2023/06/14 02:59:26;;;;;;;10.35;5.97;;;;;;;17.78;97.19;94724.75;4957301;28;20699;-66
2023/06/14 03:01:53;;;;;;;6.10;5.50;;;;;;;17.69;97.61;94741.59;4957195;28;20275;-64
2023/06/14 03:04:20;;;;;;;6.68;5.90;;;;;;;17.61;97.94;94729.22;4957309;28;20204;-64
2023/06/14 03:06:50;;;;;;;6.53;5.95;;;;;;;17.65;98.08;94735.84;4957890;28;20198;-66
2023/06/14 03:09:16;;;;;;;6.60;6.13;;;;;;;17.67;97.85;94739.13;4957423;28;20210;-64
2023/06/14 03:11:43;;;;;;;6.93;6.32;;;;;;;17.75;97.62;94740.38;4957250;28;20327;-65
2023/06/14 03:14:11;;;;;;;7.20;5.68;;;;;;;17.76;97.72;94742.03;4957121;28;21257;-65
2023/06/14 03:16:38;;;;;;;6.13;5.70;;;;;;;17.80;97.56;94743.47;4956357;28;20209;-65
2023/06/14 03:19:04;;;;;;;7.00;5.28;;;;;;;17.83;97.11;94743.25;4957782;28;20209;-64
2023/06/14 03:21:32;;;;;;;5.70;5.32;;;;;;;17.84;97.21;94748.28;4956541;28;20717;-63
2023/06/14 03:24:00;;;;;;;6.95;6.25;;;;;;;17.94;97.01;94753.63;4957161;28;20212;-65
2023/06/14 03:26:27;;;;;;;5.97;5.43;;;;;;;18.01;96.35;94757.44;4955443;28;20217;-65
2023/06/14 03:28:53;;;;;;;14.68;13.43;;;;;;;18.10;96.01;94750.84;4955240;28;20216;-64
2023/06/14 03:31:21;;;;;;;11.95;10.95;;;;;;;18.22;95.63;94753.41;4957012;28;20236;-65
2023/06/14 03:33:48;;;;;;;6.90;6.43;;;;;;;18.31;94.58;94749.41;4963192;28;20326;-64
2023/06/14 03:36:14;;;;;;;6.68;5.82;;;;;;;18.44;93.72;94757.09;4962541;28;20291;-66
2023/06/14 03:38:41;;;;;;;6.85;6.35;;;;;;;18.47;93.48;94754.31;4964009;28;20212;-64
2023/06/14 03:41:09;;;;;;;6.47;4.97;;;;;;;18.54;92.99;94760.69;4962884;28;20335;-66
2023/06/14 03:43:36;;;;;;;6.22;5.80;;;;;;;18.58;92.48;94756.94;4964824;28;20204;-65
2023/06/14 03:46:03;;;;;;;5.75;5.35;;;;;;;18.66;92.73;94759.84;4963796;28;20674;-66
2023/06/14 03:48:30;;;;;;;6.88;4.97;;;;;;;18.75;92.09;94759.22;4962886;28;20242;-66
2023/06/14 03:50:58;;;;;;;5.18;4.88;;;;;;;18.67;92.40;94753.75;4961173;28;20245;-65
2023/06/14 03:53:24;;;;;;;6.20;5.57;;;;;;;18.62;92.72;94753.25;4962996;28;20205;-65
2023/06/14 03:55:52;;;;;;;5.72;5.15;;;;;;;18.61;93.00;94756.75;4963178;28;20294;-65
2023/06/14 03:58:20;;;;;;;7.93;5.35;;;;;;;18.65;93.33;94755.63;4961053;28;20714;-65
2023/06/14 04:00:47;;;;;;;19.08;14.70;;;;;;;18.72;92.93;94758.59;4961381;28;20758;-65
2023/06/14 04:03:15;;;;;;;20.90;15.82;;;;;;;18.83;92.24;94754.31;4962192;28;20232;-65
2023/06/14 04:05:43;;;;;;;7.13;6.53;;;;;;;18.93;91.84;94762.22;4963409;28;21366;-67
2023/06/14 04:08:10;;;;;;;8.02;6.22;;;;;;;18.95;91.10;94766.34;4962069;28;20323;-65
2023/06/14 04:10:36;;;;;;;6.28;5.03;;;;;;;19.05;90.29;94765.69;4960937;28;20295;-66
2023/06/14 04:13:04;;;;;;;6.43;6.03;;;;;;;19.28;89.30;94757.97;4961578;28;20306;-66
2023/06/14 04:15:32;;;;;;;6.10;5.55;;;;;;;19.49;88.29;94759.91;4962323;28;20611;-66
2023/06/14 04:17:59;;;;;;;5.88;5.47;;;;;;;19.87;86.95;94760.47;4960696;28;20690;-66
2023/06/14 04:20:26;;;;;;;6.63;6.22;;;;;;;20.63;83.70;94759.00;4962041;28;20209;-67
2023/06/14 04:22:53;;;;;;;6.35;5.55;;;;;;;21.38;80.13;94764.25;4962091;28;20290;-65
2023/06/14 04:25:20;;;;;;;5.75;5.32;;;;;;;22.09;77.04;94762.72;4962522;28;20211;-66
2023/06/14 04:27:47;;;;;;;8.35;6.10;;;;;;;22.28;74.58;94767.97;4963813;28;20746;-65
2023/06/14 04:30:14;;;;;;;9.52;7.93;;;;;;;22.50;74.19;94766.19;4961905;28;20752;-67
2023/06/14 04:32:42;;;;;;;38.58;27.40;;;;;;;22.68;72.62;94769.78;4961425;28;20295;-68
2023/06/14 04:35:10;;;;;;;27.85;21.55;;;;;;;22.71;73.01;94765.16;4961656;28;20325;-66
2023/06/14 04:37:39;;;;;;;9.55;8.65;;;;;;;22.94;72.27;94760.63;4962742;28;21187;-65
2023/06/14 04:40:07;;;;;;;5.95;5.45;;;;;;;23.14;71.83;94760.66;4961917;28;20209;-66
2023/06/14 04:42:36;;;;;;;5.30;4.90;;;;;;;23.24;70.62;94766.66;4962723;28;20259;-66
2023/06/14 04:45:03;;;;;;;6.45;4.65;;;;;;;23.45;70.02;94757.00;4959488;28;20567;-66
2023/06/14 04:47:30;;;;;;;8.95;5.30;;;;;;;23.56;68.90;94761.22;4961256;28;20209;-66
2023/06/14 04:50:00;;;;;;;5.80;5.30;;;;;;;23.40;69.08;94764.34;4959876;28;20232;-66
2023/06/14 04:52:29;;;;;;;5.85;5.05;;;;;;;23.36;69.68;94768.97;4959258;28;20225;-66
2023/06/14 04:54:56;;;;;;;5.85;4.50;;;;;;;23.55;69.24;94770.78;4959489;28;20216;-68
2023/06/14 04:57:25;;;;;;;20.70;16.00;;;;;;;23.91;67.65;94773.63;4961372;28;20209;-66
2023/06/14 04:59:54;;;;;;;16.80;14.82;;;;;;;24.59;64.91;94775.09;4958830;28;20308;-66
2023/06/14 05:02:23;;;;;;;7.72;6.88;;;;;;;25.21;62.75;94777.97;4960223;28;20205;-67
2023/06/14 05:04:49;;;;;;;5.20;4.80;;;;;;;25.49;62.07;94776.91;4959004;28;20416;-67
2023/06/14 05:07:17;;;;;;;5.05;4.72;;;;;;;25.69;61.43;94782.84;4959191;28;20240;-68
2023/06/14 05:09:45;;;;;;;5.05;4.63;;;;;;;25.79;60.61;94787.94;4958597;28;20296;-69
2023/06/14 05:12:11;;;;;;;5.13;4.65;;;;;;;26.01;60.71;94784.84;4958831;28;20225;-68
2023/06/14 05:14:39;;;;;;;5.68;5.28;;;;;;;26.47;59.70;94777.72;4959888;28;20480;-66
2023/06/14 05:17:06;;;;;;;4.78;4.47;;;;;;;26.79;57.60;94780.44;4959741;28;20641;-66
2023/06/14 05:19:33;;;;;;;4.65;4.38;;;;;;;26.71;58.06;94785.66;4958026;28;20205;-67
2023/06/14 05:22:00;;;;;;;5.53;5.13;;;;;;;26.37;59.28;94786.44;4958711;28;20193;-69
2023/06/14 05:24:29;;;;;;;5.70;5.40;;;;;;;26.01;60.06;94793.47;4958769;28;20351;-66
2023/06/14 05:26:56;;;;;;;7.80;5.30;;;;;;;25.59;61.14;94793.28;4959738;28;20587;-66
2023/06/14 05:29:22;;;;;;;5.70;5.30;;;;;;;25.16;62.70;94796.59;4958883;28;20631;-67
2023/06/14 05:31:49;;;;;;;7.13;6.53;;;;;;;24.69;64.24;94808.84;4958633;28;20320;-66
2023/06/14 05:34:16;;;;;;;6.30;5.68;;;;;;;24.48;65.14;94810.84;4958551;28;20209;-66
2023/06/14 05:36:43;;;;;;;7.15;6.50;;;;;;;24.21;65.94;94804.59;4959948;28;20201;-65
2023/06/14 05:39:10;;;;;;;9.40;5.97;;;;;;;23.80;67.52;94810.91;4958295;28;20841;-67
2023/06/14 05:41:38;;;;;;;7.68;7.07;;;;;;;23.61;68.20;94810.94;4959276;28;20327;-65
2023/06/14 05:44:05;;;;;;;7.65;7.00;;;;;;;23.32;68.88;94811.69;4958935;28;20422;-68
2023/06/14 05:46:31;;;;;;;8.05;7.55;;;;;;;23.07;70.16;94818.19;4958467;28;20212;-65
2023/06/14 05:48:58;;;;;;;8.75;8.02;;;;;;;22.78;71.35;94821.66;4957576;28;20201;-66
2023/06/14 05:51:26;;;;;;;9.32;8.57;;;;;;;22.64;71.88;94815.84;4957596;28;20355;-66
2023/06/14 05:53:53;;;;;;;12.60;11.35;;;;;;;22.57;72.56;94813.91;4957513;28;20948;-66
2023/06/14 05:56:20;;;;;;;10.13;9.18;;;;;;;22.47;73.43;94813.06;4957933;28;20271;-65
2023/06/14 05:58:48;;;;;;;9.90;9.10;;;;;;;22.42;73.69;94818.63;4958868;28;20351;-64
2023/06/14 06:01:15;;;;;;;8.80;8.20;;;;;;;22.45;73.58;94820.13;4957851;28;20216;-66
2023/06/14 06:03:45;;;;;;;11.57;9.00;;;;;;;22.42;73.98;94821.22;4957719;28;20212;-66
2023/06/14 06:06:12;;;;;;;10.45;9.30;;;;;;;22.38;74.21;94817.22;4957897;28;20209;-66
2023/06/14 06:08:40;;;;;;;19.45;11.65;;;;;;;22.25;74.71;94820.03;4958008;28;20209;-66
2023/06/14 06:11:07;;;;;;;18.80;12.20;;;;;;;22.32;74.63;94826.31;4956600;28;20205;-67
2023/06/14 06:13:34;;;;;;;34.28;15.95;;;;;;;22.56;73.43;94813.09;4957873;28;20236;-66
2023/06/14 06:16:02;;;;;;;12.05;10.10;;;;;;;22.91;72.27;94823.06;4957967;28;20211;-67
2023/06/14 06:18:30;;;;;;;16.88;10.88;;;;;;;23.13;70.95;94826.41;4957939;28;20291;-67
2023/06/14 06:20:57;;;;;;;28.20;14.80;;;;;;;23.29;70.77;94830.09;4957197;28;20213;-68
2023/06/14 06:23:23;;;;;;;21.60;12.32;;;;;;;23.43;70.17;94828.91;4956916;28;20208;-66
2023/06/14 06:25:50;;;;;;;13.63;9.90;;;;;;;23.49;69.62;94823.19;4958383;28;20209;-67
2023/06/14 06:28:17;;;;;;;13.13;10.57;;;;;;;23.65;68.90;94826.09;4958371;28;20296;-67
2023/06/14 06:30:43;;;;;;;11.38;8.52;;;;;;;23.70;68.57;94826.50;4956672;28;20213;-66
2023/06/14 06:33:12;;;;;;;9.82;8.65;;;;;;;23.79;68.13;94830.03;4956380;28;20235;-67
2023/06/14 06:35:39;;;;;;;8.75;8.15;;;;;;;23.70;67.96;94834.28;4959811;28;20640;-66
2023/06/14 06:38:06;;;;;;;10.38;7.85;;;;;;;23.55;68.35;94835.63;4958371;28;20224;-67
2023/06/14 06:40:32;;;;;;;8.65;7.72;;;;;;;23.68;68.50;94828.41;4957722;28;20323;-67
2023/06/14 06:43:00;;;;;;;8.07;7.38;;;;;;;24.17;67.28;94834.41;4956464;28;20292;-68
2023/06/14 06:45:26;;;;;;;8.68;7.72;;;;;;;24.75;65.40;94839.44;4956993;28;20209;-66
2023/06/14 06:47:53;;;;;;;8.75;8.07;;;;;;;25.04;64.32;94834.97;4956922;28;20933;-67
2023/06/14 06:50:22;;;;;;;9.15;7.45;;;;;;;25.39;63.03;94830.81;4957496;28;20690;-67
2023/06/14 06:52:50;;;;;;;10.35;8.13;;;;;;;26.34;60.69;94828.44;4956463;28;20879;-68
2023/06/14 06:55:18;;;;;;;10.57;9.48;;;;;;;29.45;53.44;94827.59;4958090;28;20305;-68
2023/06/14 06:57:44;;;;;;;8.65;8.05;;;;;;;34.07;42.01;94821.19;4959396;28;20230;-67
2023/06/14 07:00:12;;;;;;;7.53;6.93;;;;;;;38.43;33.60;94822.31;4958773;28;20228;-67
2023/06/14 07:02:39;;;;;;;7.68;7.15;;;;;;;42.54;28.08;94808.69;4956846;28;20613;-67
2023/06/14 07:05:07;;;;;;;5.80;5.47;;;;;;;44.29;24.44;94814.28;4958476;28;21153;-68
2023/06/14 07:07:35;;;;;;;10.45;8.00;;;;;;;45.09;23.90;94803.72;4956898;28;20322;-68
2023/06/14 07:10:04;;;;;;;9.40;8.82;;;;;;;45.25;22.60;94810.69;4956891;28;20280;-69
2023/06/14 07:12:31;;;;;;;10.65;9.55;;;;;;;42.56;24.28;94818.06;4957519;28;21067;-69
2023/06/14 07:14:58;;;;;;;10.52;9.35;;;;;;;39.70;28.57;94801.13;4958385;28;20296;-69
2023/06/14 07:17:25;;;;;;;11.77;9.63;;;;;;;39.75;28.60;94803.91;4957909;28;21265;-67
2023/06/14 07:19:53;;;;;;;9.73;8.77;;;;;;;41.20;26.32;94798.75;4958182;28;20212;-69
2023/06/14 07:22:19;;;;;;;11.05;8.65;;;;;;;41.18;26.65;94804.34;4957474;28;20286;-67
2023/06/14 07:24:47;;;;;;;10.25;9.27;;;;;;;38.45;30.36;94806.94;4959599;28;20971;-69
2023/06/14 07:27:14;;;;;;;11.25;10.32;;;;;;;34.71;34.79;94807.34;4957982;28;20323;-68
2023/06/14 07:29:41;;;;;;;11.38;10.35;;;;;;;31.57;41.88;94805.41;4958345;28;20323;-67
2023/06/14 07:32:08;;;;;;;12.13;9.82;;;;;;;29.52;46.37;94809.41;4956023;28;20217;-69
2023/06/14 07:34:35;;;;;;;11.55;10.73;;;;;;;28.40;50.21;94813.06;4957589;28;20205;-66
2023/06/14 07:37:02;;;;;;;12.63;11.32;;;;;;;28.53;50.02;94806.47;4958162;28;20690;-65
2023/06/14 07:39:28;;;;;;;11.90;10.55;;;;;;;29.04;48.97;94805.19;4957452;28;20220;-68
2023/06/14 07:41:56;;;;;;;12.13;9.85;;;;;;;28.88;49.36;94811.31;4956701;28;20562;-68
2023/06/14 07:44:23;;;;;;;10.43;9.55;;;;;;;28.52;51.15;94813.50;4956998;28;20295;-66
2023/06/14 07:46:50;;;;;;;11.73;10.63;;;;;;;28.20;51.51;94805.72;4956474;28;20233;-67
2023/06/14 07:49:16;;;;;;;11.90;10.68;;;;;;;27.61;53.43;94807.66;4958797;28;20204;-66
2023/06/14 07:51:44;;;;;;;12.80;11.65;;;;;;;27.10;53.45;94812.06;4957454;28;20239;-66
2023/06/14 07:54:11;;;;;;;14.25;12.68;;;;;;;26.35;55.54;94824.84;4955870;28;21367;-66
2023/06/14 07:56:37;;;;;;;16.95;10.85;;;;;;;25.98;58.44;94824.25;4958426;28;20267;-66
2023/06/14 07:59:07;;;;;;;15.38;12.20;;;;;;;26.37;58.09;94825.53;4956524;28;20209;-67
2023/06/14 08:01:34;;;;;;;12.60;11.40;;;;;;;27.03;56.39;94826.69;4957922;28;20223;-67
2023/06/14 08:04:00;;;;;;;14.02;11.25;;;;;;;28.38;53.42;94825.47;4956116;28;20209;-66
2023/06/14 08:06:27;;;;;;;11.63;10.70;;;;;;;29.21;50.24;94830.31;4955949;28;20296;-67
2023/06/14 08:08:54;;;;;;;12.13;11.15;;;;;;;29.68;48.53;94834.69;4957861;28;20279;-66
2023/06/14 08:11:21;;;;;;;10.95;9.95;;;;;;;30.38;47.09;94839.72;4955569;28;20259;-67
2023/06/14 08:13:47;;;;;;;11.60;9.98;;;;;;;30.35;46.61;94843.53;4956501;28;20286;-67
2023/06/14 08:16:15;;;;;;;11.57;10.45;;;;;;;30.15;47.63;94842.41;4954535;28;20287;-65
2023/06/14 08:18:42;;;;;;;12.18;10.50;;;;;;;30.27;46.80;94845.38;4957244;28;20205;-68
2023/06/14 08:21:09;;;;;;;11.70;10.48;;;;;;;29.57;47.03;94842.91;4960292;28;21463;-68
2023/06/14 08:23:36;;;;;;;10.95;10.02;;;;;;;29.19;49.11;94849.81;4959526;28;20217;-68
2023/06/14 08:26:04;;;;;;;13.40;9.80;;;;;;;29.24;49.46;94847.47;4960386;28;20209;-67
2023/06/14 08:28:30;;;;;;;12.48;10.13;;;;;;;29.39;49.07;94848.41;4960419;28;20308;-66
2023/06/14 08:30:57;;;;;;;13.15;10.45;;;;;;;29.61;48.31;94845.03;4960491;28;20332;-66
2023/06/14 08:33:25;;;;;;;9.93;9.10;;;;;;;30.27;46.86;94848.81;4959402;28;20345;-66
2023/06/14 08:35:51;;;;;;;10.40;9.35;;;;;;;32.64;42.05;94845.66;4957480;28;20719;-69
2023/06/14 08:38:18;;;;;;;11.73;9.40;;;;;;;34.72;36.52;94843.31;4960364;28;20213;-65
2023/06/14 08:40:48;;;;;;;9.07;8.43;;;;;;;35.38;35.05;94837.91;4958100;28;20287;-67
2023/06/14 08:43:15;;;;;;;10.23;9.55;;;;;;;34.71;36.71;94841.69;4958294;28;20606;-65
2023/06/14 08:45:42;;;;;;;10.82;9.98;;;;;;;34.21;37.17;94835.97;4958375;28;20205;-67
2023/06/14 08:48:09;;;;;;;9.90;8.35;;;;;;;34.72;36.75;94833.56;4958081;28;22155;-68
2023/06/14 08:50:42;;;;;;;9.02;8.32;;;;;;;35.25;35.38;94832.63;4959577;28;20240;-68
2023/06/14 08:53:11;;;;;;;9.23;8.45;;;;;;;34.43;36.91;94823.44;4959770;28;20264;-67
2023/06/14 08:55:39;;;;;;;8.98;8.38;;;;;;;33.25;38.60;94829.19;4963066;28;20299;-73
2023/06/14 08:58:09;;;;;;;9.35;8.55;;;;;;;31.85;40.97;94831.00;4958724;28;20263;-68
2023/06/14 09:00:38;;;;;;;9.18;7.97;;;;;;;30.94;43.37;94829.66;4959238;28;20217;-68
2023/06/14 09:03:12;;;;;;;8.93;8.25;;;;;;;33.17;39.94;94821.47;4956615;28;20194;-69
2023/06/14 09:05:40;;;;;;;9.00;8.15;;;;;;;35.31;35.25;94823.91;4956998;28;20263;-69
2023/06/14 09:08:07;;;;;;;11.13;8.43;;;;;;;35.51;34.55;94818.53;4960800;28;20263;-69
2023/06/14 09:10:37;;;;;;;9.48;7.57;;;;;;;35.21;34.99;94823.50;4961649;28;20228;-68
2023/06/14 09:13:04;;;;;;;10.80;9.52;;;;;;;34.49;35.61;94821.81;4956218;28;20232;-68
2023/06/14 09:15:31;;;;;;;10.35;9.27;;;;;;;34.95;34.79;94819.94;4960196;28;20767;-68
2023/06/14 09:17:58;;;;;;;10.23;9.43;;;;;;;35.44;34.18;94808.00;4960471;28;20758;-68
2023/06/14 09:20:25;;;;;;;13.43;11.00;;;;;;;33.82;36.79;94809.59;4959535;28;20235;-67
2023/06/14 09:22:54;;;;;;;10.45;9.75;;;;;;;31.46;40.43;94806.72;4960586;28;20303;-69
2023/06/14 09:25:22;;;;;;;10.65;9.57;;;;;;;29.74;45.43;94819.06;4959646;28;20705;-67
2023/06/14 09:27:49;;;;;;;10.90;9.35;;;;;;;28.64;47.75;94812.19;4959173;28;20263;-69
2023/06/14 09:30:16;;;;;;;9.88;9.00;;;;;;;28.06;48.74;94815.00;4959346;28;20210;-69
2023/06/14 09:32:43;;;;;;;8.88;8.02;;;;;;;28.03;50.03;94810.09;4958074;28;20213;-69
2023/06/14 09:35:10;;;;;;;9.93;9.18;;;;;;;27.94;49.44;94811.09;4961610;28;20213;-68
2023/06/14 09:37:38;;;;;;;9.43;8.70;;;;;;;28.10;49.68;94816.31;4959044;28;20656;-68
2023/06/14 09:40:08;;;;;;;8.93;8.15;;;;;;;28.32;48.73;94815.66;4959244;28;20201;-71
2023/06/14 09:42:35;;;;;;;11.25;9.30;;;;;;;27.91;48.36;94816.66;4961108;28;20625;-69
2023/06/14 09:45:03;;;;;;;10.10;9.27;;;;;;;27.84;49.90;94810.44;4961072;28;21187;-67
2023/06/14 09:47:30;;;;;;;8.93;8.32;;;;;;;27.73;50.21;94809.75;4958920;28;20647;-69
2023/06/14 09:49:57;;;;;;;9.98;9.20;;;;;;;27.50;51.10;94802.69;4963392;28;20268;-67
2023/06/14 09:52:23;;;;;;;10.02;9.23;;;;;;;27.35;51.81;94808.53;4967273;28;20232;-66
2023/06/14 09:54:50;;;;;;;10.80;9.50;;;;;;;27.44;52.00;94805.00;4966314;28;20231;-67
2023/06/14 09:57:25;;;;;;;10.90;9.95;;;;;;;27.56;51.49;94796.84;4967165;28;20343;-68
2023/06/14 09:59:57;;;;;;;12.68;10.52;;;;;;;27.68;51.19;94793.78;4959840;28;20218;-71
2023/06/14 10:02:27;;;;;;;10.75;9.75;;;;;;;28.15;52.04;94793.13;4960117;28;20209;-65
2023/06/14 10:05:00;;;;;;;10.60;9.25;;;;;;;28.54;50.83;94790.63;4957717;28;20328;-69
2023/06/14 10:07:30;;;;;;;11.20;10.10;;;;;;;28.68;48.64;94789.13;4959479;28;20219;-70
2023/06/14 10:09:58;;;;;;;12.02;10.68;;;;;;;28.66;49.60;94793.72;4960312;28;20209;-68
2023/06/14 10:12:27;;;;;;;14.43;10.85;;;;;;;28.03;49.39;94781.38;4958354;28;20213;-68
2023/06/14 10:14:54;;;;;;;12.30;11.30;;;;;;;27.68;50.02;94775.53;4957854;28;20233;-67
2023/06/14 10:17:28;;;;;;;10.60;9.73;;;;;;;27.68;52.07;94780.75;4962277;28;20556;-69
2023/06/14 10:20:02;;;;;;;10.93;10.13;;;;;;;27.78;53.26;94775.34;4961480;28;20300;-67
2023/06/14 10:22:33;;;;;;;11.43;10.30;;;;;;;27.58;52.68;94769.63;4962811;28;20244;-69
2023/06/14 10:25:01;;;;;;;12.18;10.75;;;;;;;27.60;51.94;94777.28;4960070;28;20280;-68
2023/06/14 10:27:30;;;;;;;10.93;10.10;;;;;;;27.84;50.85;94763.44;4961271;28;20215;-69
2023/06/14 10:30:05;;;;;;;11.20;9.65;;;;;;;28.15;50.76;94772.22;4959123;28;20209;-68
2023/06/14 10:32:33;;;;;;;10.88;10.02;;;;;;;28.10;51.22;94774.50;4956148;28;20438;-70
2023/06/14 10:35:01;;;;;;;11.77;10.98;;;;;;;27.38;51.34;94773.50;4956262;28;20232;-69
2023/06/14 10:37:28;;;;;;;10.25;9.55;;;;;;;27.51;52.49;94768.59;4957014;28;20229;-69
2023/06/14 10:39:55;;;;;;;11.00;10.10;;;;;;;27.99;50.75;94764.41;4957452;28;21174;-71
2023/06/14 10:42:22;;;;;;;12.07;10.93;;;;;;;28.26;49.25;94755.41;4955798;28;20201;-68
2023/06/14 10:44:52;;;;;;;11.88;10.85;;;;;;;28.48;49.95;94759.91;4957186;28;20296;-67
2023/06/14 10:47:27;;;;;;;8.48;7.78;;;;;;;28.43;50.24;94754.41;4957582;28;20235;-69
2023/06/14 10:49:55;;;;;;;11.38;10.48;;;;;;;28.31;50.46;94750.50;4957460;28;20208;-70
2023/06/14 10:52:25;;;;;;;9.77;9.02;;;;;;;28.15;51.06;94746.09;4958691;28;20236;-71
2023/06/14 10:55:10;;;;;;;9.07;8.25;;;;;;;28.30;50.77;94744.47;4957543;28;20229;-68
2023/06/14 10:57:38;;;;;;;10.40;9.60;;;;;;;28.48;49.86;94744.25;4958537;28;20597;-70
2023/06/14 11:00:16;;;;;;;10.20;9.30;;;;;;;28.53;50.28;94738.50;4957051;28;20201;-68
2023/06/14 11:03:33;;;;;;;10.50;9.30;;;;;;;28.80;49.89;94730.22;4960372;28;20209;-72
2023/06/14 11:06:00;;;;;;;12.05;10.90;;;;;;;29.07;47.03;94732.41;4959319;28;20205;-70
2023/06/14 11:08:54;;;;;;;11.10;8.98;;;;;;;29.39;47.94;94733.22;4958767;28;20201;-69
2023/06/14 11:11:23;;;;;;;9.85;8.95;;;;;;;29.41;47.19;94726.84;4956429;28;20304;-70
2023/06/14 11:13:50;;;;;;;10.52;9.57;;;;;;;29.27;47.50;94731.97;4959167;28;20319;-72
2023/06/14 11:16:19;;;;;;;11.60;10.55;;;;;;;28.96;47.90;94722.31;4957458;28;20327;-68
2023/06/14 11:18:46;;;;;;;9.77;9.07;;;;;;;28.69;48.49;94714.94;4959278;28;20239;-71
2023/06/14 11:21:17;;;;;;;9.32;8.73;;;;;;;28.45;49.24;94710.63;4957372;28;20248;-68
2023/06/14 11:23:50;;;;;;;11.05;10.15;;;;;;;27.57;50.40;94720.97;4956805;28;20209;-69
2023/06/14 11:26:16;;;;;;;11.13;10.13;;;;;;;27.04;52.66;94717.00;4957543;28;21504;-68
2023/06/14 11:28:43;;;;;;;11.35;9.50;;;;;;;26.91;53.24;94721.84;4959570;28;20323;-69
2023/06/14 11:31:10;;;;;;;9.95;9.00;;;;;;;26.54;52.57;94713.56;4956308;28;20292;-67
2023/06/14 11:33:38;;;;;;;13.18;11.90;;;;;;;26.24;54.62;94718.25;4956633;28;20344;-69